Bezig met laden...

Meteo / TAF / Notam

België
  • EBAW - ANTWERPEN / DEURNE
    EBAW 140420Z AUTO 06006KT 6000 // SCT005/// BKN006/// BKN040/// M00/M01 Q1021
    TAF EBAW 140200Z 1403/1412 06005KT 9999 SCT006 SCT030 TEMPO 1403/1409 4000 BR PROB30 TEMPO 1404/1408 2000 BKN004
  • EBBE - BEAUVECHAIN
    EBBE 140425Z 05005KT 5000 OVC030 M01/M02 Q1020 WHT
    TAF EBBE 131541Z 1319/1407 07007KT 9999 SKC TEMPO 1323/1407 6000 TEMPO 1402/1407 4000 BR
  • EBBL - KLEINE-BROGEL
    EBBL 140425Z AUTO 04006KT 4700 BR SCT005/// OVC037/// M01/M01 Q1021 YLO
    TAF EBBL 131541Z 1319/1407 07010KT 9999 SKC BECMG 1404/1406 06005KT 3000 FG BKN005
  • EBBR - BRUSSELS / BRUSSELS-NATIONAL
    EBBR 140420Z 06003KT 3300 BR BKN005 M02/M02 Q1020 NOSIG
    TAF EBBR 132300Z 1400/1506 06006KT 9999 SCT025 TEMPO 1402/1409 4000 BR PROB30 TEMPO 1402/1408 2000 BKN003
  • EBCI - CHARLEROI / BRUSSELS SOUTH
    EBCI 140420Z 06004KT 9999 SCT030 M03/M04 Q1019 NOSIG
    TAF EBCI 132300Z 1400/1506 06006KT 9999 FEW025 PROB30 TEMPO 1402/1408 4000 BR
  • EBCV - CHIÈVRES
    EBCV 140425Z AUTO 04003KT 4200 BR BKN035/// M03/M03 Q1021 GRN
    TAF EBCV 131541Z 1319/1407 07007KT 9999 SKC BY EBWM
  • EBDT - DIEST / SCHAFFEN
    EBDT 140433Z AUTO 04005KT 3500 BR BKN034/// M01/M01 Q1021 YLO
    TAF EBDT 131541Z 1319/1407 07007KT 9999 FEW020 TEMPO 1404/1407 07008KT 3000 BR BKN003
  • EBFN - KOKSIJDE
    EBFN 140425Z 06004KT 6000 BKN035 00/M01 Q1021 WHT
    TAF EBFN 131541Z 1319/1407 09010KT 9999 SKC TEMPO 1400/1407 4000 BR PROB30 TEMPO 1402/1407 VRB03KT 2000 BR BKN003
  • EBFS - FLORENNES
    EBFS 140425Z 05004KT 9999 BKN025 M03/M05 Q1018 BLU BLU TEMPO WHT
    TAF EBFS 131541Z 1319/1407 06006KT 9999 SKC PROB30 TEMPO 1405/1407 7000
  • EBLB - ELSENBORN
    EBLB 140425Z AUTO 09005KT 9999 OVC017/// M04/M07 Q1017 WHT
  • EBLG - LIÈGE / LIÈGE
    EBLG 140420Z 09008KT 040V130 9999 BKN032 M00/M06 Q1019 NOSIG
    TAF EBLG 132300Z 1400/1506 05006KT 9999 BKN025 PROB30 TEMPO 1402/1408 4000 BR
  • EBOS - OOSTENDE-BRUGGE / OOSTENDE
    EBOS 140420Z 06005KT 7000 BKN040 M01/M02 Q1021 TEMPO 4000 BR
    TAF EBOS 132300Z 1400/1506 08008KT 9999 FEW025 TEMPO 1400/1409 4000 BR PROB30 TEMPO 1403/1409 2000 BKN003 BECMG 1504/1506 14010KT
Nederland
  • EHAK - A12-CPP HELIPAD OIL 2011
    EHAK 140425Z AUTO 14022KT 110V180 7000 -RA FEW010/// SCT019/// 05/01 Q1025 W///H///
  • EHAM - AMSTERDAM AIRPORT SCHIPHOL
    EHAM 140425Z 07008KT 9999 FEW010 02/00 Q1022 NOSIG
    TAF EHAM 132303Z 1400/1506 07009KT 9999 SCT025 BKN045 BECMG 1421/1424 10007KT
  • EHBK - MAASTRICHT AACHEN AIRPORT
    EHBK 140425Z AUTO 04004KT 020V080 9999 OVC031 M00/M02 Q1020
    TAF EHBK 132325Z 1400/1506 06006KT 9999 BKN030 PROB30 TEMPO 1400/1410 6000
  • EHDL - DEELEN AIR BASE
    EHDL 140425Z AUTO 04007KT 360V060 5000 BR BKN052 M01/M01 Q1022 WHT
  • EHDV - D15-FA-1 SEA
    EHDV 140425Z AUTO 13019KT 9999 FEW012/// SCT031/// BKN044/// 04/01 Q1024 W///H///
  • EHEH - EINDHOVEN AIRPORT
    EHEH 140425Z AUTO 04007KT 4300 BR NCD M02/M02 Q1021 GRN
    TAF EHEH 132324Z 1400/1506 05008KT 9999 FEW018 SCT040 PROB30 TEMPO 1400/1408 4000 BR SCT012 BECMG 1500/1502 12005KT PROB30 TEMPO 1503/1506 4000 BR
  • EHFD - F-3 PLATFORM
    EHFD 140425Z AUTO 10023KT 9999 FEW010/// SCT014/// BKN022/// 04/01 Q1025 REDZ W///H///
  • EHFS - VLISSINGEN
    EHFS 140425Z AUTO 06008KT 7000 SCT007/// BKN008/// 01/M00 Q1021 W///H///
  • EHFZ - F16-A SEA
    EHFZ 140425Z AUTO 13006KT 9999 FEW005 04/00 Q1024 W///H///
  • EHGG - GRONINGEN AIRPORT EELDE
    EHGG 140425Z AUTO 06008KT 9999 NSC 02/M00 Q1024
    TAF EHGG 132324Z 1400/1506 06006KT 9999 SCT012 BKN045 PROB40 TEMPO 1400/1410 6000 BKN008 PROB30 1500/1506 4000 BR
  • EHGR - GILZE-RIJEN AIR BASE
    EHGR 140425Z AUTO 04007KT 010V090 4100 BR FEW006 M03/M03 Q1021 GRN
    TAF EHGR 131730Z 1318/1406 06008KT CAVOK BECMG 1321/1323 9999 SCT018 BKN025 PROB30 TEMPO 1400/1406 SCT007 BKN011
  • EHJA - J6-A SEA, NETHERLANDS
    EHJA 140425Z AUTO 10013KT 050V170 9999 FEW014/// SCT037/// BKN043/// 06/M01 Q1023 W///H///
  • EHJR - K13-A PLATFORM
    EHJR 140425Z AUTO 11017KT //// // ///////// 05/M02 Q1023 RE// W20/H10
  • EHKD - DEN HELDER AIRPORT
    EHKD 140425Z AUTO 08011KT 9999 OVC055 02/01 Q1023 BLU
    TAF EHKD 140116Z 1402/1414 09010KT 9999 OVC050 PROB40 TEMPO 1403/1410 SCT010 OVC050 PROB30 TEMPO 1410/1414 FEW012 SCT015
  • EHKV - K14-FA-1C PLATFORM
    EHKV 140425Z AUTO 10017KT 9999 FEW021 05/M02 Q1024 W///H///
  • EHLW - LEEUWARDEN AIR BASE
    EHLW 140425Z AUTO 08006KT 040V110 9999 OVC052 02/M00 Q1024 BLU
    TAF EHLW 131730Z 1318/1406 07007KT CAVOK BECMG 1319/1321 9999 SCT016 BKN020 PROB40 TEMPO 1321/1406 BKN007 BKN011
  • EHMA - AWG-1 PLATFORM
    EHMA 140425Z AUTO 11014KT //// // NSC 04/M01 Q1024 RE// W///H///
  • EHMG - L9-FF-1 PLATFORM
    EHMG 140425Z AUTO 11016KT 9999 FEW024 05/M00 Q1024 W///H///
  • EHPG - P11-B SEA, NETHERLANDS
    EHPG 140425Z AUTO 07017KT 9999 FEW017 SCT022 BKN030 04/M01 Q1022 W///H///
  • EHQE - HOORN-A SEA, NETHERLANDS
    EHQE 140425Z AUTO 06017KT 9999 FEW010 04/01 Q1023 W///H///
  • EHRD - ROTTERDAM THE HAGUE AIRPORT
    EHRD 140425Z AUTO 05004KT 5000 BR NSC M02/M03 Q1022 NOSIG
    TAF EHRD 132303Z 1400/1506 07008KT 9999 BKN045 BECMG 1503/1506 13007KT
  • EHSA - EURO PLATFORM
    EHSA 140425Z AUTO 07012KT 9999 ///////// 04/M00 Q1022 W08/H10
  • EHSC - LICHTEILAND GOEREE
    EHSC 140425Z AUTO 09013KT 9999 ///////// 03/00 Q1022 W08/H8
  • EHVK - VOLKEL AIR BASE
    EHVK 140425Z AUTO 04007KT 7000 BR NCD M01/M01 Q1021 WHT
    TAF EHVK 140115Z 1402/1414 05008KT 9999 FEW018 SCT035 PROB30 TEMPO 1400/1409 4000 BR FEW008 SCT012 PROB40 TEMPO 1409/1412 SCT012
  • EHVL - VLIELAND HELIPORT
    EHVL 140425Z AUTO 09012KT 9999 FEW059 01/M00 Q1024 BLU
  • EHWO - WOENSDRECHT AIR BASE
    EHWO 140430Z AUTO 06005KT 360V080 4100 BR FEW003 BKN004 M03/M03 Q1021 YLO
Luxemburg
  • ELLX - LUXEMBOURG FINDEL AIRPORT
    ELLX 140420Z 09008KT 050V120 9999 OVC024 M02/M07 Q1017 NOSIG
    TAF ELLX 132300Z 1400/1506 06010KT 9999 SCT030 PROB30 TEMPO 1402/1407 3000 BR NSC TEMPO 1407/1422 BKN020

Buienradar



Weerbericht - Voorspelling